Molly Pitcher — WDI3781 — position and weather

sailwx.info

Track history (hours):
 
Tides and Currents Weather Stations Pressure Air Temp Water Temp Dewpoint Dewpoint Depression Visibility Wind Speed Wind Dir Waves Ship Positions

Molly Pitcher

Owner: Port Imperial Ferry Corp, Weehawken, NJ. More information available from US FCC via Universal Licensing System and Coast Guard Vessel Documentation Center.

Last reported at 2017-Oct-20 22:00 UTC. Time now 2017-Oct-23 06:04 UTC.
Position N 40°29' W 074°04'.

Length 33 m.

Type: Passenger vessel. MMSI: 367691840.

Date/timePositionNaut miles runAvg speedWind from/ knotsBaromVisibWave heightAir tempDewpointWater temp
2017-Oct-20 22:00N 40°29' W 074°04'1427.7
2017-Oct-20 21:31N 40°42' W 074°00'3 6.0
2017-Oct-20 21:01N 40°40' W 074°03'1216.5
2017-Oct-20 20:17N 40°28' W 074°04'829.9
2017-Oct-20 20:00N 40°36' W 074°03'713.7
2017-Oct-20 19:30N 40°43' W 074°01'3 5.4
2017-Oct-20 19:00N 40°46' W 074°00'0 0.0
2017-Oct-20 14:37N 40°46' W 074°01'0 3.8
2017-Oct-20 14:31N 40°45' W 074°01'2017.1
2017-Oct-20 13:22N 40°26' W 074°05'1028.5
2017-Oct-20 13:01N 40°36' W 074°03'918.1
2017-Oct-20 12:31N 40°45' W 074°01'612.0
2017-Oct-20 12:00N 40°39' W 074°02'1317.7
2017-Oct-20 11:17N 40°27' W 074°05'829.7
2017-Oct-20 11:00N 40°35' W 074°03'715.0
2017-Oct-20 10:30N 40°42' W 074°01'1121.0
2017-Oct-20 10:00N 40°32' W 074°04'3 0.2
2017-Oct-19 22:01N 40°29' W 074°04'028.8
2017-Oct-19 22:00N 40°30' W 074°04'1326.1
2017-Oct-19 21:31N 40°42' W 074°00'2 4.4
2017-Oct-19 21:01N 40°40' W 074°02'1421.6
2017-Oct-19 20:21N 40°26' W 074°05'1028.4
2017-Oct-19 20:01N 40°36' W 074°03'815.1
2017-Oct-19 19:30N 40°43' W 074°01'3 5.3
2017-Oct-19 19:00N 40°46' W 074°00'0 0.1
2017-Oct-19 14:39N 40°46' W 074°01'211.9
2017-Oct-19 14:31N 40°44' W 074°01'816.6
2017-Oct-19 14:00N 40°36' W 074°03'814.2
2017-Oct-19 13:28N 40°28' W 074°04'1328.4
2017-Oct-19 13:01N 40°41' W 074°02'2 3.7
2017-Oct-19 12:31N 40°43' W 074°02'4 8.4
2017-Oct-19 12:01N 40°39' W 074°02'1318.6
2017-Oct-19 11:19N 40°26' W 074°05'825.1
2017-Oct-19 11:00N 40°34' W 074°03'817.0
2017-Oct-19 10:31N 40°42' W 074°01'1121.3
2017-Oct-19 10:01N 40°32' W 074°04'5 0.4
2017-Oct-18 22:05N 40°27' W 074°05'328.9
2017-Oct-18 22:00N 40°30' W 074°04'1326.4
2017-Oct-18 21:30N 40°42' W 074°00'2 4.9
2017-Oct-18 21:01N 40°40' W 074°03'1422.5
2017-Oct-18 20:22N 40°26' W 074°05'1028.7
2017-Oct-18 20:01N 40°36' W 074°03'713.3
2017-Oct-18 19:30N 40°43' W 074°01'3 5.6
2017-Oct-18 19:01N 40°46' W 074°00'1 0.2
2017-Oct-18 14:52N 40°46' W 074°01'8 8.7
2017-Oct-18 14:01N 40°39' W 074°02'1012.6
2017-Oct-18 13:14N 40°29' W 074°04'729.4
2017-Oct-18 13:00N 40°36' W 074°03'816.5
2017-Oct-18 12:30N 40°44' W 074°01'510.8
2017-Oct-18 12:00N 40°39' W 074°02'1216.4
2017-Oct-18 11:17N 40°27' W 074°05'829.2
2017-Oct-18 11:00N 40°35' W 074°04'815.5
2017-Oct-18 10:31N 40°42' W 074°01'1121.2
2017-Oct-18 10:00N 40°32' W 074°04'3 0.2
2017-Oct-17 22:02N 40°29' W 074°04'128.9
2017-Oct-17 22:00N 40°30' W 074°04'1325.6
2017-Oct-17 21:30N 40°42' W 074°00'3 5.2
2017-Oct-17 21:01N 40°40' W 074°03'1420.6
2017-Oct-17 20:21N 40°27' W 074°05'1029.1
2017-Oct-17 20:01N 40°36' W 074°03'713.4
2017-Oct-17 19:30N 40°43' W 074°01'3 5.5
2017-Oct-17 19:00N 40°46' W 074°00'0 0.0
2017-Oct-17 14:34N 40°46' W 074°00'0 2.2
2017-Oct-17 14:31N 40°46' W 074°00'815.7
2017-Oct-17 14:00N 40°38' W 074°03'912.8
2017-Oct-17 13:18N 40°29' W 074°04'930.1
2017-Oct-17 13:01N 40°38' W 074°03'510.6
2017-Oct-17 12:31N 40°43' W 074°02'4 8.8
2017-Oct-17 12:00N 40°38' W 074°02'1317.6
2017-Oct-17 11:18N 40°26' W 074°05'828.4
2017-Oct-17 11:00N 40°34' W 074°04'816.9
2017-Oct-17 10:31N 40°43' W 074°01'1122.1
2017-Oct-17 10:00N 40°31' W 074°04'5 0.4
2017-Oct-16 22:06N 40°27' W 074°05'328.8
2017-Oct-16 22:00N 40°29' W 074°04'1326.9
2017-Oct-16 21:30N 40°42' W 074°00'2 5.0
2017-Oct-16 21:01N 40°40' W 074°03'1419.7
2017-Oct-16 20:19N 40°27' W 074°05'929.3
2017-Oct-16 20:01N 40°36' W 074°03'714.2
2017-Oct-16 19:30N 40°43' W 074°01'3 5.5
2017-Oct-16 19:00N 40°46' W 074°00'1 1.4
2017-Oct-16 18:30N 40°46' W 074°01'0 0.0
2017-Oct-16 17:13N 40°46' W 074°01'0 0.0
2017-Oct-16 16:42N 40°46' W 074°01'0 0.0
2017-Oct-16 16:30N 40°46' W 074°01'0 0.5
2017-Oct-16 16:01N 40°46' W 074°01'0 0.5
2017-Oct-16 15:30N 40°46' W 074°01'0 0.0
2017-Oct-16 15:00N 40°46' W 074°01'0 0.0
2017-Oct-16 14:00N 40°46' W 074°01'0 0.0
2017-Oct-16 13:30N 40°46' W 074°01'3 6.7
2017-Oct-16 13:01N 40°43' W 074°02'5 9.7
2017-Oct-16 12:30N 40°38' W 074°03'1218.2
2017-Oct-16 11:50N 40°26' W 074°05'928.8
2017-Oct-16 11:31N 40°35' W 074°03'714.2
2017-Oct-16 11:01N 40°42' W 074°00'1427.3
2017-Oct-16 10:29N 40°28' W 074°04'1 0.5
2017-Oct-16 09:20N 40°29' W 074°04'1029.3
2017-Oct-16 09:00N 40°38' W 074°03'816.6
2017-Oct-16 08:30N 40°46' W 074°01'  
2017-Oct-13 23:02N 40°46' W 074°01'136.1
2017-Oct-13 23:00N 40°45' W 074°01'1426.3
2017-Oct-13 22:27N 40°31' W 074°04'1 1.9
2017-Oct-13 21:59N 40°30' W 074°04'1327.4
2017-Oct-13 21:30N 40°42' W 074°00'3 5.2
2017-Oct-13 21:00N 40°40' W 074°02'1216.8
2017-Oct-13 20:17N 40°28' W 074°05'828.9
2017-Oct-13 20:00N 40°36' W 074°03'713.9
2017-Oct-13 19:30N 40°43' W 074°01'3 6.6
2017-Oct-13 19:00N 40°46' W 074°01'0 0.1
2017-Oct-13 14:41N 40°46' W 074°01'210.2
2017-Oct-13 14:30N 40°44' W 074°01'714.6
2017-Oct-13 14:00N 40°37' W 074°03'1119.4
2017-Oct-13 13:28N 40°27' W 074°05'1430.4
2017-Oct-13 13:00N 40°40' W 074°02'4 7.1
2017-Oct-13 12:30N 40°44' W 074°01'611.1
2017-Oct-13 12:00N 40°38' W 074°03'1217.2
2017-Oct-13 11:17N 40°26' W 074°05'828.0
2017-Oct-13 11:00N 40°34' W 074°04'816.8
2017-Oct-13 10:30N 40°42' W 074°00'1122.5
2017-Oct-13 10:00N 40°31' W 074°05'3 0.2
2017-Oct-12 22:01N 40°28' W 074°04'128.7
2017-Oct-12 21:59N 40°29' W 074°04'1427.2
2017-Oct-12 21:30N 40°42' W 074°00'3 6.4
2017-Oct-12 21:00N 40°40' W 074°03'1217.1
2017-Oct-12 20:18N 40°28' W 074°05'929.2
2017-Oct-12 20:00N 40°37' W 074°03'713.4
2017-Oct-12 19:30N 40°43' W 074°01'2 0.4
2017-Oct-12 14:36N 40°45' W 074°01'1 8.9
2017-Oct-12 14:29N 40°46' W 074°00'815.6
2017-Oct-12 14:00N 40°38' W 074°03'1219.6
2017-Oct-12 13:22N 40°26' W 074°05'1128.6
2017-Oct-12 13:00N 40°36' W 074°03'612.9
2017-Oct-12 12:30N 40°43' W 074°02'510.2
2017-Oct-12 12:00N 40°38' W 074°03'1216.9
2017-Oct-12 11:18N 40°26' W 074°05'928.4
2017-Oct-12 11:00N 40°35' W 074°04'815.7
2017-Oct-12 10:30N 40°42' W 074°00'1121.8
2017-Oct-12 10:00N 40°31' W 074°04'3 0.3
2017-Oct-11 22:01N 40°28' W 074°04'128.8
2017-Oct-11 22:00N 40°29' W 074°04'1427.4
2017-Oct-11 21:30N 40°42' W 074°00'3 6.3
2017-Oct-11 21:00N 40°40' W 074°03'1421.3
2017-Oct-11 20:21N 40°26' W 074°05'1028.2
2017-Oct-11 20:00N 40°36' W 074°03'714.5
2017-Oct-11 19:31N 40°43' W 074°01'3 5.3
2017-Oct-11 19:00N 40°46' W 074°00'20 1.0
2017-Oct-10 22:07N 40°26' W 074°05'324.8
2017-Oct-10 22:00N 40°29' W 074°04'  
Track history (hours):
 
Tides and Currents Weather Stations Pressure Air Temp Water Temp Dewpoint Dewpoint Depression Visibility Wind Speed Wind Dir Waves Ship Positions

Molly Pitcher

Owner: Port Imperial Ferry Corp, Weehawken, NJ. More information available from US FCC via Universal Licensing System and Coast Guard Vessel Documentation Center.

Last reported at 2017-Oct-20 22:00 UTC. Time now 2017-Oct-23 06:04 UTC.
Position N 40°29' W 074°04'.

Length 33 m.

Type: Passenger vessel. MMSI: 367691840.

Date/timePositionNaut miles runAvg speedWind from/ knotsBaromVisibWave heightAir tempDewpointWater temp
2017-Oct-20 22:00N 40°29' W 074°04'1427.7
2017-Oct-20 21:31N 40°42' W 074°00'3 6.0
2017-Oct-20 21:01N 40°40' W 074°03'1216.5
2017-Oct-20 20:17N 40°28' W 074°04'829.9
2017-Oct-20 20:00N 40°36' W 074°03'713.7
2017-Oct-20 19:30N 40°43' W 074°01'3 5.4
2017-Oct-20 19:00N 40°46' W 074°00'0 0.0
2017-Oct-20 14:37N 40°46' W 074°01'0 3.8
2017-Oct-20 14:31N 40°45' W 074°01'2017.1
2017-Oct-20 13:22N 40°26' W 074°05'1028.5
2017-Oct-20 13:01N 40°36' W 074°03'918.1
2017-Oct-20 12:31N 40°45' W 074°01'612.0
2017-Oct-20 12:00N 40°39' W 074°02'1317.7
2017-Oct-20 11:17N 40°27' W 074°05'829.7
2017-Oct-20 11:00N 40°35' W 074°03'715.0
2017-Oct-20 10:30N 40°42' W 074°01'1121.0
2017-Oct-20 10:00N 40°32' W 074°04'3 0.2
2017-Oct-19 22:01N 40°29' W 074°04'028.8
2017-Oct-19 22:00N 40°30' W 074°04'1326.1
2017-Oct-19 21:31N 40°42' W 074°00'2 4.4
2017-Oct-19 21:01N 40°40' W 074°02'1421.6
2017-Oct-19 20:21N 40°26' W 074°05'1028.4
2017-Oct-19 20:01N 40°36' W 074°03'815.1
2017-Oct-19 19:30N 40°43' W 074°01'3 5.3
2017-Oct-19 19:00N 40°46' W 074°00'0 0.1
2017-Oct-19 14:39N 40°46' W 074°01'211.9
2017-Oct-19 14:31N 40°44' W 074°01'816.6
2017-Oct-19 14:00N 40°36' W 074°03'814.2
2017-Oct-19 13:28N 40°28' W 074°04'1328.4
2017-Oct-19 13:01N 40°41' W 074°02'2 3.7
2017-Oct-19 12:31N 40°43' W 074°02'4 8.4
2017-Oct-19 12:01N 40°39' W 074°02'1318.6
2017-Oct-19 11:19N 40°26' W 074°05'825.1
2017-Oct-19 11:00N 40°34' W 074°03'817.0
2017-Oct-19 10:31N 40°42' W 074°01'1121.3
2017-Oct-19 10:01N 40°32' W 074°04'5 0.4
2017-Oct-18 22:05N 40°27' W 074°05'328.9
2017-Oct-18 22:00N 40°30' W 074°04'1326.4
2017-Oct-18 21:30N 40°42' W 074°00'2 4.9
2017-Oct-18 21:01N 40°40' W 074°03'1422.5
2017-Oct-18 20:22N 40°26' W 074°05'1028.7
2017-Oct-18 20:01N 40°36' W 074°03'713.3
2017-Oct-18 19:30N 40°43' W 074°01'3 5.6
2017-Oct-18 19:01N 40°46' W 074°00'1 0.2
2017-Oct-18 14:52N 40°46' W 074°01'8 8.7
2017-Oct-18 14:01N 40°39' W 074°02'1012.6
2017-Oct-18 13:14N 40°29' W 074°04'729.4
2017-Oct-18 13:00N 40°36' W 074°03'816.5
2017-Oct-18 12:30N 40°44' W 074°01'510.8
2017-Oct-18 12:00N 40°39' W 074°02'1216.4
2017-Oct-18 11:17N 40°27' W 074°05'829.2
2017-Oct-18 11:00N 40°35' W 074°04'815.5
2017-Oct-18 10:31N 40°42' W 074°01'1121.2
2017-Oct-18 10:00N 40°32' W 074°04'3 0.2
2017-Oct-17 22:02N 40°29' W 074°04'128.9
2017-Oct-17 22:00N 40°30' W 074°04'1325.6
2017-Oct-17 21:30N 40°42' W 074°00'3 5.2
2017-Oct-17 21:01N 40°40' W 074°03'1420.6
2017-Oct-17 20:21N 40°27' W 074°05'1029.1
2017-Oct-17 20:01N 40°36' W 074°03'713.4
2017-Oct-17 19:30N 40°43' W 074°01'3 5.5
2017-Oct-17 19:00N 40°46' W 074°00'0 0.0
2017-Oct-17 14:34N 40°46' W 074°00'0 2.2
2017-Oct-17 14:31N 40°46' W 074°00'815.7
2017-Oct-17 14:00N 40°38' W 074°03'912.8
2017-Oct-17 13:18N 40°29' W 074°04'930.1
2017-Oct-17 13:01N 40°38' W 074°03'510.6
2017-Oct-17 12:31N 40°43' W 074°02'4 8.8
2017-Oct-17 12:00N 40°38' W 074°02'1317.6
2017-Oct-17 11:18N 40°26' W 074°05'828.4
2017-Oct-17 11:00N 40°34' W 074°04'816.9
2017-Oct-17 10:31N 40°43' W 074°01'1122.1
2017-Oct-17 10:00N 40°31' W 074°04'5 0.4
2017-Oct-16 22:06N 40°27' W 074°05'328.8
2017-Oct-16 22:00N 40°29' W 074°04'1326.9
2017-Oct-16 21:30N 40°42' W 074°00'2 5.0
2017-Oct-16 21:01N 40°40' W 074°03'1419.7
2017-Oct-16 20:19N 40°27' W 074°05'929.3
2017-Oct-16 20:01N 40°36' W 074°03'714.2
2017-Oct-16 19:30N 40°43' W 074°01'3 5.5
2017-Oct-16 19:00N 40°46' W 074°00'1 1.4
2017-Oct-16 18:30N 40°46' W 074°01'0 0.0
2017-Oct-16 17:13N 40°46' W 074°01'0 0.0
2017-Oct-16 16:42N 40°46' W 074°01'0 0.0
2017-Oct-16 16:30N 40°46' W 074°01'0 0.5
2017-Oct-16 16:01N 40°46' W 074°01'0 0.5
2017-Oct-16 15:30N 40°46' W 074°01'0 0.0
2017-Oct-16 15:00N 40°46' W 074°01'0 0.0
2017-Oct-16 14:00N 40°46' W 074°01'0 0.0
2017-Oct-16 13:30N 40°46' W 074°01'3 6.7
2017-Oct-16 13:01N 40°43' W 074°02'5 9.7
2017-Oct-16 12:30N 40°38' W 074°03'1218.2
2017-Oct-16 11:50N 40°26' W 074°05'928.8
2017-Oct-16 11:31N 40°35' W 074°03'714.2
2017-Oct-16 11:01N 40°42' W 074°00'1427.3
2017-Oct-16 10:29N 40°28' W 074°04'1 0.5
2017-Oct-16 09:20N 40°29' W 074°04'1029.3
2017-Oct-16 09:00N 40°38' W 074°03'816.6
2017-Oct-16 08:30N 40°46' W 074°01'  
2017-Oct-13 23:02N 40°46' W 074°01'136.1
2017-Oct-13 23:00N 40°45' W 074°01'1426.3
2017-Oct-13 22:27N 40°31' W 074°04'1 1.9
2017-Oct-13 21:59N 40°30' W 074°04'1327.4
2017-Oct-13 21:30N 40°42' W 074°00'3 5.2
2017-Oct-13 21:00N 40°40' W 074°02'1216.8
2017-Oct-13 20:17N 40°28' W 074°05'828.9
2017-Oct-13 20:00N 40°36' W 074°03'713.9
2017-Oct-13 19:30N 40°43' W 074°01'3 6.6
2017-Oct-13 19:00N 40°46' W 074°01'0 0.1
2017-Oct-13 14:41N 40°46' W 074°01'210.2
2017-Oct-13 14:30N 40°44' W 074°01'714.6
2017-Oct-13 14:00N 40°37' W 074°03'1119.4
2017-Oct-13 13:28N 40°27' W 074°05'1430.4
2017-Oct-13 13:00N 40°40' W 074°02'4 7.1
2017-Oct-13 12:30N 40°44' W 074°01'611.1
2017-Oct-13 12:00N 40°38' W 074°03'1217.2
2017-Oct-13 11:17N 40°26' W 074°05'828.0
2017-Oct-13 11:00N 40°34' W 074°04'816.8
2017-Oct-13 10:30N 40°42' W 074°00'1122.5
2017-Oct-13 10:00N 40°31' W 074°05'3 0.2
2017-Oct-12 22:01N 40°28' W 074°04'128.7
2017-Oct-12 21:59N 40°29' W 074°04'1427.2
2017-Oct-12 21:30N 40°42' W 074°00'3 6.4
2017-Oct-12 21:00N 40°40' W 074°03'1217.1
2017-Oct-12 20:18N 40°28' W 074°05'929.2
2017-Oct-12 20:00N 40°37' W 074°03'713.4
2017-Oct-12 19:30N 40°43' W 074°01'2 0.4
2017-Oct-12 14:36N 40°45' W 074°01'1 8.9
2017-Oct-12 14:29N 40°46' W 074°00'815.6
2017-Oct-12 14:00N 40°38' W 074°03'1219.6
2017-Oct-12 13:22N 40°26' W 074°05'1128.6
2017-Oct-12 13:00N 40°36' W 074°03'612.9
2017-Oct-12 12:30N 40°43' W 074°02'510.2
2017-Oct-12 12:00N 40°38' W 074°03'1216.9
2017-Oct-12 11:18N 40°26' W 074°05'928.4
2017-Oct-12 11:00N 40°35' W 074°04'815.7
2017-Oct-12 10:30N 40°42' W 074°00'1121.8
2017-Oct-12 10:00N 40°31' W 074°04'3 0.3
2017-Oct-11 22:01N 40°28' W 074°04'128.8
2017-Oct-11 22:00N 40°29' W 074°04'1427.4
2017-Oct-11 21:30N 40°42' W 074°00'3 6.3
2017-Oct-11 21:00N 40°40' W 074°03'1421.3
2017-Oct-11 20:21N 40°26' W 074°05'1028.2
2017-Oct-11 20:00N 40°36' W 074°03'714.5
2017-Oct-11 19:31N 40°43' W 074°01'3 5.3
2017-Oct-11 19:00N 40°46' W 074°00'20 1.0
2017-Oct-10 22:07N 40°26' W 074°05'324.8
2017-Oct-10 22:00N 40°29' W 074°04'  

Dump ship's entire track history